sensor_id;sensor_type;location;lat;lon;timestamp;P1;durP1;ratioP1;P2;durP2;ratioP2
1376;SDS011;682;52.502;13.488;2024-03-02T00:01:39;49.47;;;43.13;;
1376;SDS011;682;52.502;13.488;2024-03-02T00:04:08;50.40;;;42.30;;
1376;SDS011;682;52.502;13.488;2024-03-02T00:06:36;53.33;;;42.93;;
1376;SDS011;682;52.502;13.488;2024-03-02T00:09:03;53.27;;;43.70;;
1376;SDS011;682;52.502;13.488;2024-03-02T00:11:30;55.03;;;45.13;;
1376;SDS011;682;52.502;13.488;2024-03-02T00:14:01;52.40;;;43.90;;
1376;SDS011;682;52.502;13.488;2024-03-02T00:16:30;54.00;;;44.43;;
1376;SDS011;682;52.502;13.488;2024-03-02T00:19:01;49.47;;;42.97;;
1376;SDS011;682;52.502;13.488;2024-03-02T00:21:28;53.70;;;44.80;;
1376;SDS011;682;52.502;13.488;2024-03-02T00:23:57;52.40;;;43.17;;
1376;SDS011;682;52.502;13.488;2024-03-02T00:26:24;56.17;;;47.23;;
1376;SDS011;682;52.502;13.488;2024-03-02T00:28:51;51.43;;;45.03;;
1376;SDS011;682;52.502;13.488;2024-03-02T00:31:21;52.40;;;43.33;;
1376;SDS011;682;52.502;13.488;2024-03-02T00:33:51;47.80;;;42.30;;
1376;SDS011;682;52.502;13.488;2024-03-02T00:36:22;55.00;;;44.03;;
1376;SDS011;682;52.502;13.488;2024-03-02T00:38:51;53.77;;;43.37;;
1376;SDS011;682;52.502;13.488;2024-03-02T00:41:21;49.60;;;42.93;;
1376;SDS011;682;52.502;13.488;2024-03-02T00:46:37;52.40;;;43.57;;
1376;SDS011;682;52.502;13.488;2024-03-02T00:49:11;54.63;;;44.00;;
1376;SDS011;682;52.502;13.488;2024-03-02T00:51:46;51.10;;;44.53;;
1376;SDS011;682;52.502;13.488;2024-03-02T00:54:14;58.60;;;49.03;;
1376;SDS011;682;52.502;13.488;2024-03-02T00:56:45;53.97;;;44.47;;
1376;SDS011;682;52.502;13.488;2024-03-02T00:59:13;51.60;;;44.63;;
1376;SDS011;682;52.502;13.488;2024-03-02T01:01:40;56.23;;;46.47;;
1376;SDS011;682;52.502;13.488;2024-03-02T01:04:08;53.17;;;46.27;;
1376;SDS011;682;52.502;13.488;2024-03-02T01:06:35;52.30;;;45.60;;
1376;SDS011;682;52.502;13.488;2024-03-02T01:09:02;52.40;;;44.93;;
1376;SDS011;682;52.502;13.488;2024-03-02T01:11:30;58.40;;;46.47;;
1376;SDS011;682;52.502;13.488;2024-03-02T01:13:57;54.00;;;46.10;;
1376;SDS011;682;52.502;13.488;2024-03-02T01:16:24;55.57;;;46.33;;
1376;SDS011;682;52.502;13.488;2024-03-02T01:18:51;52.63;;;45.70;;
1376;SDS011;682;52.502;13.488;2024-03-02T01:21:19;56.30;;;46.80;;
1376;SDS011;682;52.502;13.488;2024-03-02T01:23:46;55.20;;;44.33;;
1376;SDS011;682;52.502;13.488;2024-03-02T01:26:13;53.87;;;44.80;;
1376;SDS011;682;52.502;13.488;2024-03-02T01:28:40;51.67;;;44.43;;
1376;SDS011;682;52.502;13.488;2024-03-02T01:31:07;56.00;;;46.67;;
1376;SDS011;682;52.502;13.488;2024-03-02T01:33:34;57.23;;;46.77;;
1376;SDS011;682;52.502;13.488;2024-03-02T01:36:01;59.07;;;46.43;;
1376;SDS011;682;52.502;13.488;2024-03-02T01:38:29;53.97;;;45.80;;
1376;SDS011;682;52.502;13.488;2024-03-02T01:40:56;58.40;;;46.60;;
1376;SDS011;682;52.502;13.488;2024-03-02T01:43:23;54.40;;;46.80;;
1376;SDS011;682;52.502;13.488;2024-03-02T01:45:51;57.77;;;48.17;;
1376;SDS011;682;52.502;13.488;2024-03-02T01:48:18;53.57;;;44.97;;
1376;SDS011;682;52.502;13.488;2024-03-02T01:50:45;53.67;;;47.50;;
1376;SDS011;682;52.502;13.488;2024-03-02T01:53:12;59.17;;;46.90;;
1376;SDS011;682;52.502;13.488;2024-03-02T01:55:41;54.70;;;47.37;;
1376;SDS011;682;52.502;13.488;2024-03-02T01:58:08;59.83;;;48.37;;
1376;SDS011;682;52.502;13.488;2024-03-02T02:00:35;58.03;;;46.50;;
1376;SDS011;682;52.502;13.488;2024-03-02T02:03:02;60.57;;;49.40;;
1376;SDS011;682;52.502;13.488;2024-03-02T02:05:29;61.07;;;48.03;;
1376;SDS011;682;52.502;13.488;2024-03-02T02:07:57;59.63;;;48.13;;
1376;SDS011;682;52.502;13.488;2024-03-02T02:10:24;56.97;;;46.53;;
1376;SDS011;682;52.502;13.488;2024-03-02T02:12:52;58.00;;;48.83;;
1376;SDS011;682;52.502;13.488;2024-03-02T02:15:26;59.07;;;46.17;;
1376;SDS011;682;52.502;13.488;2024-03-02T02:17:54;58.03;;;50.03;;
1376;SDS011;682;52.502;13.488;2024-03-02T02:20:20;56.07;;;47.67;;
1376;SDS011;682;52.502;13.488;2024-03-02T02:22:59;55.13;;;45.77;;
1376;SDS011;682;52.502;13.488;2024-03-02T02:25:27;55.37;;;45.70;;
1376;SDS011;682;52.502;13.488;2024-03-02T02:27:56;62.63;;;50.37;;
1376;SDS011;682;52.502;13.488;2024-03-02T02:30:24;58.43;;;47.30;;
1376;SDS011;682;52.502;13.488;2024-03-02T02:32:52;60.97;;;48.13;;
1376;SDS011;682;52.502;13.488;2024-03-02T02:35:19;59.47;;;47.43;;
1376;SDS011;682;52.502;13.488;2024-03-02T02:37:47;57.70;;;46.30;;
1376;SDS011;682;52.502;13.488;2024-03-02T02:40:16;59.70;;;46.60;;
1376;SDS011;682;52.502;13.488;2024-03-02T02:42:44;63.67;;;49.33;;
1376;SDS011;682;52.502;13.488;2024-03-02T02:45:13;58.93;;;48.00;;
1376;SDS011;682;52.502;13.488;2024-03-02T02:47:40;56.67;;;47.70;;
1376;SDS011;682;52.502;13.488;2024-03-02T02:50:07;55.47;;;49.00;;
1376;SDS011;682;52.502;13.488;2024-03-02T02:52:36;61.83;;;49.63;;
1376;SDS011;682;52.502;13.488;2024-03-02T02:55:06;63.33;;;48.73;;
1376;SDS011;682;52.502;13.488;2024-03-02T02:57:35;64.90;;;50.80;;
1376;SDS011;682;52.502;13.488;2024-03-02T03:00:05;61.70;;;49.67;;
1376;SDS011;682;52.502;13.488;2024-03-02T03:02:35;61.20;;;47.97;;
1376;SDS011;682;52.502;13.488;2024-03-02T03:05:04;64.17;;;47.97;;
1376;SDS011;682;52.502;13.488;2024-03-02T03:07:32;61.53;;;50.13;;
1376;SDS011;682;52.502;13.488;2024-03-02T03:09:59;61.03;;;49.53;;
1376;SDS011;682;52.502;13.488;2024-03-02T03:12:26;57.73;;;46.60;;
1376;SDS011;682;52.502;13.488;2024-03-02T03:14:55;56.27;;;48.67;;
1376;SDS011;682;52.502;13.488;2024-03-02T03:17:22;62.03;;;49.20;;
1376;SDS011;682;52.502;13.488;2024-03-02T03:19:49;60.73;;;48.47;;
1376;SDS011;682;52.502;13.488;2024-03-02T03:22:16;55.50;;;47.30;;
1376;SDS011;682;52.502;13.488;2024-03-02T03:24:43;60.00;;;48.50;;
1376;SDS011;682;52.502;13.488;2024-03-02T03:27:10;63.40;;;49.30;;
1376;SDS011;682;52.502;13.488;2024-03-02T03:29:37;58.90;;;48.77;;
1376;SDS011;682;52.502;13.488;2024-03-02T03:32:06;52.47;;;44.57;;
1376;SDS011;682;52.502;13.488;2024-03-02T03:34:33;59.67;;;47.17;;
1376;SDS011;682;52.502;13.488;2024-03-02T03:37:00;56.03;;;44.90;;
1376;SDS011;682;52.502;13.488;2024-03-02T03:39:28;56.60;;;46.33;;
1376;SDS011;682;52.502;13.488;2024-03-02T03:41:55;58.07;;;45.70;;
1376;SDS011;682;52.502;13.488;2024-03-02T03:44:22;53.43;;;44.77;;
1376;SDS011;682;52.502;13.488;2024-03-02T03:46:49;53.97;;;44.57;;
1376;SDS011;682;52.502;13.488;2024-03-02T03:49:17;54.87;;;44.30;;
1376;SDS011;682;52.502;13.488;2024-03-02T03:51:44;53.17;;;44.93;;
1376;SDS011;682;52.502;13.488;2024-03-02T03:54:11;58.57;;;45.73;;
1376;SDS011;682;52.502;13.488;2024-03-02T03:56:38;55.80;;;46.53;;
1376;SDS011;682;52.502;13.488;2024-03-02T03:59:05;63.67;;;45.97;;
1376;SDS011;682;52.502;13.488;2024-03-02T04:01:32;54.90;;;45.60;;
1376;SDS011;682;52.502;13.488;2024-03-02T04:03:59;52.90;;;43.70;;
1376;SDS011;682;52.502;13.488;2024-03-02T04:06:28;57.03;;;45.77;;
1376;SDS011;682;52.502;13.488;2024-03-02T04:08:55;52.27;;;43.90;;
1376;SDS011;682;52.502;13.488;2024-03-02T04:11:22;53.70;;;45.03;;
1376;SDS011;682;52.502;13.488;2024-03-02T04:13:49;62.37;;;47.20;;
1376;SDS011;682;52.502;13.488;2024-03-02T04:16:16;54.07;;;45.83;;
1376;SDS011;682;52.502;13.488;2024-03-02T04:18:43;62.97;;;46.10;;
1376;SDS011;682;52.502;13.488;2024-03-02T04:21:10;58.20;;;45.80;;
1376;SDS011;682;52.502;13.488;2024-03-02T04:23:39;60.60;;;47.20;;
1376;SDS011;682;52.502;13.488;2024-03-02T04:26:07;55.13;;;45.80;;
1376;SDS011;682;52.502;13.488;2024-03-02T04:28:34;56.20;;;44.80;;
1376;SDS011;682;52.502;13.488;2024-03-02T04:31:01;53.77;;;47.07;;
1376;SDS011;682;52.502;13.488;2024-03-02T04:33:28;54.37;;;44.93;;
1376;SDS011;682;52.502;13.488;2024-03-02T04:35:55;58.17;;;45.10;;
1376;SDS011;682;52.502;13.488;2024-03-02T04:38:22;56.40;;;43.10;;
1376;SDS011;682;52.502;13.488;2024-03-02T04:40:51;51.73;;;43.40;;
1376;SDS011;682;52.502;13.488;2024-03-02T04:43:18;51.07;;;41.60;;
1376;SDS011;682;52.502;13.488;2024-03-02T04:45:45;46.77;;;40.97;;
1376;SDS011;682;52.502;13.488;2024-03-02T04:48:11;53.90;;;41.77;;
1376;SDS011;682;52.502;13.488;2024-03-02T04:50:40;46.87;;;40.07;;
1376;SDS011;682;52.502;13.488;2024-03-02T04:53:07;44.00;;;39.30;;
1376;SDS011;682;52.502;13.488;2024-03-02T04:55:34;49.20;;;40.83;;
1376;SDS011;682;52.502;13.488;2024-03-02T04:58:34;50.77;;;40.40;;
1376;SDS011;682;52.502;13.488;2024-03-02T05:01:01;57.17;;;46.20;;
1376;SDS011;682;52.502;13.488;2024-03-02T05:03:28;47.77;;;40.30;;
1376;SDS011;682;52.502;13.488;2024-03-02T05:05:55;48.30;;;40.57;;
1376;SDS011;682;52.502;13.488;2024-03-02T05:08:23;50.50;;;43.33;;
1376;SDS011;682;52.502;13.488;2024-03-02T05:10:50;48.13;;;40.27;;
1376;SDS011;682;52.502;13.488;2024-03-02T05:13:17;49.90;;;41.37;;
1376;SDS011;682;52.502;13.488;2024-03-02T05:15:47;50.63;;;39.97;;
1376;SDS011;682;52.502;13.488;2024-03-02T05:18:14;47.00;;;41.07;;
1376;SDS011;682;52.502;13.488;2024-03-02T05:20:41;49.10;;;40.40;;
1376;SDS011;682;52.502;13.488;2024-03-02T05:23:08;49.13;;;40.90;;
1376;SDS011;682;52.502;13.488;2024-03-02T05:25:35;52.37;;;39.67;;
1376;SDS011;682;52.502;13.488;2024-03-02T05:28:03;46.47;;;39.57;;
1376;SDS011;682;52.502;13.488;2024-03-02T05:30:30;48.20;;;40.57;;
1376;SDS011;682;52.502;13.488;2024-03-02T05:32:58;46.90;;;39.20;;
1376;SDS011;682;52.502;13.488;2024-03-02T05:35:25;45.43;;;40.47;;
1376;SDS011;682;52.502;13.488;2024-03-02T05:37:52;43.93;;;39.23;;
1376;SDS011;682;52.502;13.488;2024-03-02T05:40:19;49.10;;;38.80;;
1376;SDS011;682;52.502;13.488;2024-03-02T05:42:46;48.63;;;41.13;;
1376;SDS011;682;52.502;13.488;2024-03-02T05:45:13;46.47;;;39.60;;
1376;SDS011;682;52.502;13.488;2024-03-02T05:47:41;47.33;;;41.10;;
1376;SDS011;682;52.502;13.488;2024-03-02T05:50:10;48.57;;;39.80;;
1376;SDS011;682;52.502;13.488;2024-03-02T05:52:36;48.63;;;41.00;;
1376;SDS011;682;52.502;13.488;2024-03-02T05:55:04;51.30;;;41.50;;
1376;SDS011;682;52.502;13.488;2024-03-02T05:57:31;51.67;;;41.50;;
1376;SDS011;682;52.502;13.488;2024-03-02T06:00:12;50.57;;;41.73;;
1376;SDS011;682;52.502;13.488;2024-03-02T06:02:42;50.80;;;41.93;;
1376;SDS011;682;52.502;13.488;2024-03-02T06:05:10;52.17;;;41.47;;
1376;SDS011;682;52.502;13.488;2024-03-02T06:07:40;50.07;;;42.20;;
1376;SDS011;682;52.502;13.488;2024-03-02T06:10:08;56.33;;;41.27;;
1376;SDS011;682;52.502;13.488;2024-03-02T06:12:37;53.63;;;42.07;;
1376;SDS011;682;52.502;13.488;2024-03-02T06:15:05;54.90;;;44.20;;
1376;SDS011;682;52.502;13.488;2024-03-02T06:17:32;55.80;;;44.43;;
1376;SDS011;682;52.502;13.488;2024-03-02T06:20:01;52.40;;;43.43;;
1376;SDS011;682;52.502;13.488;2024-03-02T06:22:30;49.93;;;41.47;;
1376;SDS011;682;52.502;13.488;2024-03-02T06:24:57;50.83;;;43.87;;
1376;SDS011;682;52.502;13.488;2024-03-02T06:27:25;55.37;;;45.23;;
1376;SDS011;682;52.502;13.488;2024-03-02T06:29:52;50.10;;;43.07;;
1376;SDS011;682;52.502;13.488;2024-03-02T06:32:19;57.23;;;44.17;;
1376;SDS011;682;52.502;13.488;2024-03-02T06:34:48;52.07;;;42.03;;
1376;SDS011;682;52.502;13.488;2024-03-02T06:37:15;53.60;;;43.47;;
1376;SDS011;682;52.502;13.488;2024-03-02T06:39:43;54.67;;;43.63;;
1376;SDS011;682;52.502;13.488;2024-03-02T06:42:10;59.53;;;45.70;;
1376;SDS011;682;52.502;13.488;2024-03-02T06:44:37;51.53;;;42.37;;
1376;SDS011;682;52.502;13.488;2024-03-02T06:47:04;54.17;;;44.50;;
1376;SDS011;682;52.502;13.488;2024-03-02T06:49:31;53.60;;;43.83;;
1376;SDS011;682;52.502;13.488;2024-03-02T06:51:59;54.60;;;43.10;;
1376;SDS011;682;52.502;13.488;2024-03-02T06:54:26;52.20;;;41.53;;
1376;SDS011;682;52.502;13.488;2024-03-02T06:56:54;53.77;;;43.97;;
1376;SDS011;682;52.502;13.488;2024-03-02T06:59:22;60.60;;;47.20;;
1376;SDS011;682;52.502;13.488;2024-03-02T07:01:49;55.00;;;43.10;;
1376;SDS011;682;52.502;13.488;2024-03-02T07:04:16;55.13;;;42.57;;
1376;SDS011;682;52.502;13.488;2024-03-02T07:06:43;55.87;;;43.43;;
1376;SDS011;682;52.502;13.488;2024-03-02T07:09:10;51.70;;;43.43;;
1376;SDS011;682;52.502;13.488;2024-03-02T07:11:37;56.50;;;45.30;;
1376;SDS011;682;52.502;13.488;2024-03-02T07:14:08;56.47;;;45.07;;
1376;SDS011;682;52.502;13.488;2024-03-02T07:16:37;60.37;;;42.23;;
1376;SDS011;682;52.502;13.488;2024-03-02T07:19:05;55.10;;;44.67;;
1376;SDS011;682;52.502;13.488;2024-03-02T07:21:32;52.40;;;43.77;;
1376;SDS011;682;52.502;13.488;2024-03-02T07:23:59;60.57;;;46.63;;
1376;SDS011;682;52.502;13.488;2024-03-02T07:26:27;53.43;;;44.20;;
1376;SDS011;682;52.502;13.488;2024-03-02T07:28:55;51.40;;;42.93;;
1376;SDS011;682;52.502;13.488;2024-03-02T07:31:23;52.40;;;42.17;;
1376;SDS011;682;52.502;13.488;2024-03-02T07:33:50;59.43;;;44.10;;
1376;SDS011;682;52.502;13.488;2024-03-02T07:36:17;56.07;;;44.23;;
1376;SDS011;682;52.502;13.488;2024-03-02T07:38:45;53.93;;;43.37;;
1376;SDS011;682;52.502;13.488;2024-03-02T07:41:15;55.00;;;43.57;;
1376;SDS011;682;52.502;13.488;2024-03-02T07:43:42;53.17;;;43.57;;
1376;SDS011;682;52.502;13.488;2024-03-02T07:46:10;61.60;;;43.67;;
1376;SDS011;682;52.502;13.488;2024-03-02T07:48:38;54.73;;;42.63;;
1376;SDS011;682;52.502;13.488;2024-03-02T07:51:06;50.73;;;41.80;;
1376;SDS011;682;52.502;13.488;2024-03-02T07:53:33;53.00;;;45.07;;
1376;SDS011;682;52.502;13.488;2024-03-02T07:55:59;54.93;;;44.47;;
1376;SDS011;682;52.502;13.488;2024-03-02T07:58:28;54.90;;;43.97;;
1376;SDS011;682;52.502;13.488;2024-03-02T08:00:56;52.50;;;40.73;;
1376;SDS011;682;52.502;13.488;2024-03-02T08:03:23;50.03;;;41.87;;
1376;SDS011;682;52.502;13.488;2024-03-02T08:05:51;50.00;;;41.43;;
1376;SDS011;682;52.502;13.488;2024-03-02T08:08:18;53.73;;;42.80;;
1376;SDS011;682;52.502;13.488;2024-03-02T08:10:45;49.63;;;40.90;;
1376;SDS011;682;52.502;13.488;2024-03-02T08:13:12;55.13;;;43.70;;
1376;SDS011;682;52.502;13.488;2024-03-02T08:15:39;51.47;;;42.43;;
1376;SDS011;682;52.502;13.488;2024-03-02T08:18:06;47.50;;;42.10;;
1376;SDS011;682;52.502;13.488;2024-03-02T08:20:33;55.53;;;42.83;;
1376;SDS011;682;52.502;13.488;2024-03-02T08:23:02;53.60;;;41.37;;
1376;SDS011;682;52.502;13.488;2024-03-02T08:25:29;48.40;;;40.70;;
1376;SDS011;682;52.502;13.488;2024-03-02T08:27:56;51.70;;;39.87;;
1376;SDS011;682;52.502;13.488;2024-03-02T08:30:23;47.90;;;39.90;;
1376;SDS011;682;52.502;13.488;2024-03-02T08:32:50;49.23;;;38.37;;
1376;SDS011;682;52.502;13.488;2024-03-02T08:35:17;47.50;;;38.70;;
1376;SDS011;682;52.502;13.488;2024-03-02T08:37:45;46.60;;;40.43;;
1376;SDS011;682;52.502;13.488;2024-03-02T08:40:13;49.27;;;38.17;;
1376;SDS011;682;52.502;13.488;2024-03-02T08:42:41;48.87;;;40.57;;
1376;SDS011;682;52.502;13.488;2024-03-02T08:45:09;44.83;;;37.30;;
1376;SDS011;682;52.502;13.488;2024-03-02T08:47:36;45.47;;;38.33;;
1376;SDS011;682;52.502;13.488;2024-03-02T08:50:04;48.63;;;40.80;;
1376;SDS011;682;52.502;13.488;2024-03-02T08:52:33;49.13;;;38.53;;
1376;SDS011;682;52.502;13.488;2024-03-02T08:55:01;45.93;;;39.53;;
1376;SDS011;682;52.502;13.488;2024-03-02T08:57:30;51.80;;;38.80;;
1376;SDS011;682;52.502;13.488;2024-03-02T08:59:57;49.00;;;40.67;;
1376;SDS011;682;52.502;13.488;2024-03-02T09:02:24;48.13;;;41.80;;
1376;SDS011;682;52.502;13.488;2024-03-02T09:04:52;52.50;;;41.93;;
1376;SDS011;682;52.502;13.488;2024-03-02T09:07:21;49.87;;;39.90;;
1376;SDS011;682;52.502;13.488;2024-03-02T09:09:48;47.57;;;40.00;;
1376;SDS011;682;52.502;13.488;2024-03-02T09:12:15;48.90;;;39.30;;
1376;SDS011;682;52.502;13.488;2024-03-02T09:14:44;47.40;;;39.60;;
1376;SDS011;682;52.502;13.488;2024-03-02T09:17:13;50.30;;;39.73;;
1376;SDS011;682;52.502;13.488;2024-03-02T09:19:40;46.90;;;38.37;;
1376;SDS011;682;52.502;13.488;2024-03-02T09:22:07;49.47;;;39.13;;
1376;SDS011;682;52.502;13.488;2024-03-02T09:24:35;44.07;;;36.90;;
1376;SDS011;682;52.502;13.488;2024-03-02T09:27:01;43.17;;;37.67;;
1376;SDS011;682;52.502;13.488;2024-03-02T09:29:29;54.93;;;35.10;;
1376;SDS011;682;52.502;13.488;2024-03-02T09:31:57;44.90;;;38.03;;
1376;SDS011;682;52.502;13.488;2024-03-02T09:34:24;44.93;;;36.70;;
1376;SDS011;682;52.502;13.488;2024-03-02T09:36:51;43.73;;;36.20;;
1376;SDS011;682;52.502;13.488;2024-03-02T09:39:20;43.67;;;36.07;;
1376;SDS011;682;52.502;13.488;2024-03-02T09:41:47;45.23;;;37.03;;
1376;SDS011;682;52.502;13.488;2024-03-02T09:44:14;43.00;;;35.30;;
1376;SDS011;682;52.502;13.488;2024-03-02T09:46:41;39.90;;;34.17;;
1376;SDS011;682;52.502;13.488;2024-03-02T09:49:10;43.23;;;36.03;;
1376;SDS011;682;52.502;13.488;2024-03-02T09:51:37;39.00;;;33.77;;
1376;SDS011;682;52.502;13.488;2024-03-02T09:54:05;41.87;;;34.03;;
1376;SDS011;682;52.502;13.488;2024-03-02T09:56:34;39.10;;;32.60;;
1376;SDS011;682;52.502;13.488;2024-03-02T09:59:02;39.10;;;33.83;;
1376;SDS011;682;52.502;13.488;2024-03-02T10:01:30;38.90;;;32.23;;
1376;SDS011;682;52.502;13.488;2024-03-02T10:03:57;36.33;;;29.60;;
1376;SDS011;682;52.502;13.488;2024-03-02T10:06:27;35.37;;;31.50;;
1376;SDS011;682;52.502;13.488;2024-03-02T10:08:55;36.97;;;31.90;;
1376;SDS011;682;52.502;13.488;2024-03-02T10:11:25;37.17;;;30.57;;
1376;SDS011;682;52.502;13.488;2024-03-02T10:14:03;36.23;;;30.63;;
1376;SDS011;682;52.502;13.488;2024-03-02T10:16:33;37.23;;;30.43;;
1376;SDS011;682;52.502;13.488;2024-03-02T10:19:14;34.00;;;29.90;;
1376;SDS011;682;52.502;13.488;2024-03-02T10:21:47;41.20;;;32.80;;
1376;SDS011;682;52.502;13.488;2024-03-02T10:24:16;32.70;;;26.60;;
1376;SDS011;682;52.502;13.488;2024-03-02T10:26:43;34.83;;;27.50;;
1376;SDS011;682;52.502;13.488;2024-03-02T10:29:10;31.47;;;27.63;;
1376;SDS011;682;52.502;13.488;2024-03-02T10:31:39;32.40;;;27.10;;
1376;SDS011;682;52.502;13.488;2024-03-02T10:34:07;33.73;;;26.30;;
1376;SDS011;682;52.502;13.488;2024-03-02T10:36:36;27.30;;;23.87;;
1376;SDS011;682;52.502;13.488;2024-03-02T10:39:05;26.40;;;23.60;;
1376;SDS011;682;52.502;13.488;2024-03-02T10:41:33;28.47;;;25.47;;
1376;SDS011;682;52.502;13.488;2024-03-02T10:44:01;25.83;;;23.03;;
1376;SDS011;682;52.502;13.488;2024-03-02T10:46:31;25.10;;;22.50;;
1376;SDS011;682;52.502;13.488;2024-03-02T10:49:01;23.27;;;20.50;;
1376;SDS011;682;52.502;13.488;2024-03-02T10:51:29;28.60;;;24.10;;
1376;SDS011;682;52.502;13.488;2024-03-02T10:53:57;25.37;;;22.50;;
1376;SDS011;682;52.502;13.488;2024-03-02T10:56:28;24.47;;;21.87;;
1376;SDS011;682;52.502;13.488;2024-03-02T10:59:00;24.90;;;22.20;;
1376;SDS011;682;52.502;13.488;2024-03-02T11:01:31;24.50;;;20.33;;
1376;SDS011;682;52.502;13.488;2024-03-02T11:03:59;23.33;;;20.87;;
1376;SDS011;682;52.502;13.488;2024-03-02T11:06:29;41.00;;;24.20;;
1376;SDS011;682;52.502;13.488;2024-03-02T11:09:00;22.83;;;20.27;;
1376;SDS011;682;52.502;13.488;2024-03-02T11:11:36;27.77;;;20.50;;
1376;SDS011;682;52.502;13.488;2024-03-02T11:14:07;28.80;;;24.77;;
1376;SDS011;682;52.502;13.488;2024-03-02T11:16:39;24.67;;;21.70;;
1376;SDS011;682;52.502;13.488;2024-03-02T11:19:07;23.70;;;21.27;;
1376;SDS011;682;52.502;13.488;2024-03-02T11:21:36;23.80;;;21.33;;
1376;SDS011;682;52.502;13.488;2024-03-02T11:26:59;26.10;;;21.17;;
1376;SDS011;682;52.502;13.488;2024-03-02T11:32:18;24.00;;;20.27;;
1376;SDS011;682;52.502;13.488;2024-03-02T11:34:49;26.07;;;21.63;;
1376;SDS011;682;52.502;13.488;2024-03-02T11:37:17;25.73;;;22.80;;
1376;SDS011;682;52.502;13.488;2024-03-02T11:39:45;26.03;;;23.23;;
1376;SDS011;682;52.502;13.488;2024-03-02T11:42:14;24.67;;;22.03;;
1376;SDS011;682;52.502;13.488;2024-03-02T11:44:42;35.43;;;24.57;;
1376;SDS011;682;52.502;13.488;2024-03-02T11:47:12;23.80;;;21.30;;
1376;SDS011;682;52.502;13.488;2024-03-02T11:49:41;24.27;;;20.73;;
1376;SDS011;682;52.502;13.488;2024-03-02T11:52:10;22.30;;;20.00;;
1376;SDS011;682;52.502;13.488;2024-03-02T11:54:38;24.03;;;21.57;;
1376;SDS011;682;52.502;13.488;2024-03-02T11:57:11;22.87;;;20.40;;
1376;SDS011;682;52.502;13.488;2024-03-02T11:59:41;24.27;;;21.80;;
1376;SDS011;682;52.502;13.488;2024-03-02T12:02:12;22.97;;;20.37;;
1376;SDS011;682;52.502;13.488;2024-03-02T12:04:40;22.80;;;20.47;;
1376;SDS011;682;52.502;13.488;2024-03-02T12:07:10;24.30;;;20.50;;
1376;SDS011;682;52.502;13.488;2024-03-02T12:09:38;21.40;;;19.10;;
1376;SDS011;682;52.502;13.488;2024-03-02T12:12:08;21.83;;;19.53;;
1376;SDS011;682;52.502;13.488;2024-03-02T12:14:49;31.60;;;23.97;;
1376;SDS011;682;52.502;13.488;2024-03-02T12:17:18;21.63;;;19.33;;
1376;SDS011;682;52.502;13.488;2024-03-02T12:19:44;22.03;;;18.67;;
1376;SDS011;682;52.502;13.488;2024-03-02T12:22:12;19.83;;;17.80;;
1376;SDS011;682;52.502;13.488;2024-03-02T12:24:41;21.17;;;18.97;;
1376;SDS011;682;52.502;13.488;2024-03-02T12:27:10;21.63;;;19.40;;
1376;SDS011;682;52.502;13.488;2024-03-02T12:29:38;21.53;;;19.20;;
1376;SDS011;682;52.502;13.488;2024-03-02T12:32:07;20.70;;;18.57;;
1376;SDS011;682;52.502;13.488;2024-03-02T12:34:34;21.07;;;18.63;;
1376;SDS011;682;52.502;13.488;2024-03-02T12:37:01;18.43;;;16.43;;
1376;SDS011;682;52.502;13.488;2024-03-02T12:39:29;18.47;;;16.60;;
1376;SDS011;682;52.502;13.488;2024-03-02T12:41:58;19.63;;;17.70;;
1376;SDS011;682;52.502;13.488;2024-03-02T12:44:25;17.57;;;15.63;;
1376;SDS011;682;52.502;13.488;2024-03-02T12:46:52;18.67;;;16.67;;
1376;SDS011;682;52.502;13.488;2024-03-02T12:49:22;18.23;;;16.57;;
1376;SDS011;682;52.502;13.488;2024-03-02T12:51:49;17.47;;;15.77;;
1376;SDS011;682;52.502;13.488;2024-03-02T12:54:21;17.87;;;16.07;;
1376;SDS011;682;52.502;13.488;2024-03-02T12:56:50;16.90;;;15.20;;
1376;SDS011;682;52.502;13.488;2024-03-02T12:59:19;15.73;;;14.20;;
1376;SDS011;682;52.502;13.488;2024-03-02T13:01:50;15.67;;;14.00;;
1376;SDS011;682;52.502;13.488;2024-03-02T13:04:22;16.00;;;14.03;;
1376;SDS011;682;52.502;13.488;2024-03-02T13:06:51;14.93;;;13.70;;
1376;SDS011;682;52.502;13.488;2024-03-02T13:09:18;19.40;;;15.90;;
1376;SDS011;682;52.502;13.488;2024-03-02T13:11:45;18.30;;;16.50;;
1376;SDS011;682;52.502;13.488;2024-03-02T13:14:12;17.30;;;15.70;;
1376;SDS011;682;52.502;13.488;2024-03-02T13:16:40;15.43;;;13.80;;
1376;SDS011;682;52.502;13.488;2024-03-02T13:19:08;15.27;;;13.63;;
1376;SDS011;682;52.502;13.488;2024-03-02T13:21:36;15.37;;;13.17;;
1376;SDS011;682;52.502;13.488;2024-03-02T13:24:04;17.77;;;15.93;;
1376;SDS011;682;52.502;13.488;2024-03-02T13:26:32;18.10;;;15.70;;
1376;SDS011;682;52.502;13.488;2024-03-02T13:28:59;14.50;;;13.10;;
1376;SDS011;682;52.502;13.488;2024-03-02T13:31:26;16.57;;;14.97;;
1376;SDS011;682;52.502;13.488;2024-03-02T13:33:53;15.87;;;14.27;;
1376;SDS011;682;52.502;13.488;2024-03-02T13:36:20;15.33;;;13.40;;
1376;SDS011;682;52.502;13.488;2024-03-02T13:38:49;15.03;;;13.63;;
1376;SDS011;682;52.502;13.488;2024-03-02T13:41:16;16.53;;;14.90;;
1376;SDS011;682;52.502;13.488;2024-03-02T13:43:45;17.93;;;15.73;;
1376;SDS011;682;52.502;13.488;2024-03-02T13:46:13;21.53;;;19.33;;
1376;SDS011;682;52.502;13.488;2024-03-02T13:48:41;17.70;;;15.90;;
1376;SDS011;682;52.502;13.488;2024-03-02T13:51:08;15.10;;;13.60;;
1376;SDS011;682;52.502;13.488;2024-03-02T13:53:35;17.20;;;15.40;;
1376;SDS011;682;52.502;13.488;2024-03-02T13:56:04;15.53;;;13.90;;
1376;SDS011;682;52.502;13.488;2024-03-02T13:58:32;18.00;;;15.13;;
1376;SDS011;682;52.502;13.488;2024-03-02T14:00:59;14.63;;;13.23;;
1376;SDS011;682;52.502;13.488;2024-03-02T14:03:26;13.53;;;12.20;;
1376;SDS011;682;52.502;13.488;2024-03-02T14:05:56;14.90;;;13.50;;
1376;SDS011;682;52.502;13.488;2024-03-02T14:08:23;15.53;;;13.80;;
1376;SDS011;682;52.502;13.488;2024-03-02T14:10:52;13.63;;;12.23;;
1376;SDS011;682;52.502;13.488;2024-03-02T14:13:21;15.33;;;13.77;;
1376;SDS011;682;52.502;13.488;2024-03-02T14:15:49;16.20;;;13.17;;
1376;SDS011;682;52.502;13.488;2024-03-02T14:18:16;15.37;;;13.87;;
1376;SDS011;682;52.502;13.488;2024-03-02T14:20:43;14.77;;;13.27;;
1376;SDS011;682;52.502;13.488;2024-03-02T14:23:13;19.63;;;14.20;;
1376;SDS011;682;52.502;13.488;2024-03-02T14:25:41;15.77;;;13.70;;
1376;SDS011;682;52.502;13.488;2024-03-02T14:28:08;16.33;;;14.80;;
1376;SDS011;682;52.502;13.488;2024-03-02T14:30:36;13.80;;;11.73;;
1376;SDS011;682;52.502;13.488;2024-03-02T14:33:03;14.13;;;12.67;;
1376;SDS011;682;52.502;13.488;2024-03-02T14:35:30;16.83;;;15.03;;
1376;SDS011;682;52.502;13.488;2024-03-02T14:37:58;17.30;;;15.60;;
1376;SDS011;682;52.502;13.488;2024-03-02T14:40:25;18.10;;;16.17;;
1376;SDS011;682;52.502;13.488;2024-03-02T14:42:54;15.93;;;14.20;;
1376;SDS011;682;52.502;13.488;2024-03-02T14:45:21;16.07;;;14.30;;
1376;SDS011;682;52.502;13.488;2024-03-02T14:47:50;18.43;;;15.33;;
1376;SDS011;682;52.502;13.488;2024-03-02T14:50:18;19.17;;;13.80;;
1376;SDS011;682;52.502;13.488;2024-03-02T14:52:45;14.53;;;12.97;;
1376;SDS011;682;52.502;13.488;2024-03-02T14:55:13;16.80;;;12.60;;
1376;SDS011;682;52.502;13.488;2024-03-02T14:57:43;13.50;;;12.10;;
1376;SDS011;682;52.502;13.488;2024-03-02T15:00:10;15.33;;;12.60;;
1376;SDS011;682;52.502;13.488;2024-03-02T15:02:38;11.93;;;10.73;;